sensor_id;sensor_type;location;lat;lon;timestamp;temperature;humidity
45137;DHT22;30894;51.740;19.498;2023-05-10T00:00:12;4.20;59.50
45137;DHT22;30894;51.740;19.498;2023-05-10T00:02:58;4.20;59.60
45137;DHT22;30894;51.740;19.498;2023-05-10T00:05:24;4.20;59.60
45137;DHT22;30894;51.740;19.498;2023-05-10T00:07:51;4.20;59.50
45137;DHT22;30894;51.740;19.498;2023-05-10T00:10:20;4.20;59.50
45137;DHT22;30894;51.740;19.498;2023-05-10T00:12:48;4.20;59.50
45137;DHT22;30894;51.740;19.498;2023-05-10T00:15:23;4.20;59.50
45137;DHT22;30894;51.740;19.498;2023-05-10T00:18:20;4.20;59.40
45137;DHT22;30894;51.740;19.498;2023-05-10T00:20:48;4.40;59.30
45137;DHT22;30894;51.740;19.498;2023-05-10T00:23:15;4.40;59.20
45137;DHT22;30894;51.740;19.498;2023-05-10T00:25:41;4.50;59.20
45137;DHT22;30894;51.740;19.498;2023-05-10T00:28:07;4.60;59.20
45137;DHT22;30894;51.740;19.498;2023-05-10T00:30:33;4.60;59.00
45137;DHT22;30894;51.740;19.498;2023-05-10T00:32:59;4.70;59.00
45137;DHT22;30894;51.740;19.498;2023-05-10T00:35:28;4.80;58.80
45137;DHT22;30894;51.740;19.498;2023-05-10T00:37:54;4.80;58.80
45137;DHT22;30894;51.740;19.498;2023-05-10T00:40:20;4.80;58.80
45137;DHT22;30894;51.740;19.498;2023-05-10T00:42:50;4.80;58.90
45137;DHT22;30894;51.740;19.498;2023-05-10T00:45:17;4.90;58.90
45137;DHT22;30894;51.740;19.498;2023-05-10T00:47:44;5.00;58.80
45137;DHT22;30894;51.740;19.498;2023-05-10T00:50:14;5.00;58.80
45137;DHT22;30894;51.740;19.498;2023-05-10T00:52:41;5.10;58.70
45137;DHT22;30894;51.740;19.498;2023-05-10T00:55:11;5.10;58.70
45137;DHT22;30894;51.740;19.498;2023-05-10T00:57:39;5.10;58.70
45137;DHT22;30894;51.740;19.498;2023-05-10T01:00:05;5.10;58.60
45137;DHT22;30894;51.740;19.498;2023-05-10T01:02:34;5.20;58.80
45137;DHT22;30894;51.740;19.498;2023-05-10T01:05:05;5.20;58.60
45137;DHT22;30894;51.740;19.498;2023-05-10T01:07:34;5.30;58.60
45137;DHT22;30894;51.740;19.498;2023-05-10T01:10:00;5.40;58.50
45137;DHT22;30894;51.740;19.498;2023-05-10T01:12:30;5.50;58.50
45137;DHT22;30894;51.740;19.498;2023-05-10T01:14:56;5.50;58.40
45137;DHT22;30894;51.740;19.498;2023-05-10T01:17:24;5.60;58.50
45137;DHT22;30894;51.740;19.498;2023-05-10T01:19:50;5.60;58.40
45137;DHT22;30894;51.740;19.498;2023-05-10T01:30:46;5.70;58.50
45137;DHT22;30894;51.740;19.498;2023-05-10T01:33:30;5.70;58.40
45137;DHT22;30894;51.740;19.498;2023-05-10T01:36:21;5.70;58.30
45137;DHT22;30894;51.740;19.498;2023-05-10T01:41:55;5.90;58.40
45137;DHT22;30894;51.740;19.498;2023-05-10T01:44:42;5.90;58.40
45137;DHT22;30894;51.740;19.498;2023-05-10T01:50:14;5.80;58.50
45137;DHT22;30894;51.740;19.498;2023-05-10T01:52:53;5.80;58.60
45137;DHT22;30894;51.740;19.498;2023-05-10T01:55:22;5.80;58.60
45137;DHT22;30894;51.740;19.498;2023-05-10T01:58:01;5.80;58.60
45137;DHT22;30894;51.740;19.498;2023-05-10T02:00:33;5.80;58.70
45137;DHT22;30894;51.740;19.498;2023-05-10T02:03:02;5.80;58.70
45137;DHT22;30894;51.740;19.498;2023-05-10T02:05:32;5.80;58.70
45137;DHT22;30894;51.740;19.498;2023-05-10T02:07:59;5.80;58.70
45137;DHT22;30894;51.740;19.498;2023-05-10T02:10:28;5.70;58.70
45137;DHT22;30894;51.740;19.498;2023-05-10T02:12:55;5.70;58.80
45137;DHT22;30894;51.740;19.498;2023-05-10T02:15:25;5.60;58.80
45137;DHT22;30894;51.740;19.498;2023-05-10T02:17:56;5.60;58.90
45137;DHT22;30894;51.740;19.498;2023-05-10T02:20:24;5.60;59.00
45137;DHT22;30894;51.740;19.498;2023-05-10T02:22:53;5.60;59.10
45137;DHT22;30894;51.740;19.498;2023-05-10T02:25:22;5.50;59.10
45137;DHT22;30894;51.740;19.498;2023-05-10T02:27:49;5.50;59.20
45137;DHT22;30894;51.740;19.498;2023-05-10T02:30:16;5.50;59.20
45137;DHT22;30894;51.740;19.498;2023-05-10T02:32:44;5.50;59.20
45137;DHT22;30894;51.740;19.498;2023-05-10T02:35:12;5.50;59.20
45137;DHT22;30894;51.740;19.498;2023-05-10T02:37:38;5.40;59.20
45137;DHT22;30894;51.740;19.498;2023-05-10T02:40:06;5.40;59.20
45137;DHT22;30894;51.740;19.498;2023-05-10T02:42:35;5.30;59.20
45137;DHT22;30894;51.740;19.498;2023-05-10T02:45:07;5.40;59.30
45137;DHT22;30894;51.740;19.498;2023-05-10T02:47:36;5.30;59.30
45137;DHT22;30894;51.740;19.498;2023-05-10T02:50:03;5.40;59.30
45137;DHT22;30894;51.740;19.498;2023-05-10T02:52:39;5.30;59.30
45137;DHT22;30894;51.740;19.498;2023-05-10T02:55:11;5.30;59.40
45137;DHT22;30894;51.740;19.498;2023-05-10T02:57:41;5.20;59.40
45137;DHT22;30894;51.740;19.498;2023-05-10T03:00:10;5.20;59.50
45137;DHT22;30894;51.740;19.498;2023-05-10T03:02:36;5.20;59.50
45137;DHT22;30894;51.740;19.498;2023-05-10T03:05:03;5.10;59.60
45137;DHT22;30894;51.740;19.498;2023-05-10T03:07:29;5.10;59.80
45137;DHT22;30894;51.740;19.498;2023-05-10T03:09:56;5.00;59.80
45137;DHT22;30894;51.740;19.498;2023-05-10T03:12:52;5.10;59.90
45137;DHT22;30894;51.740;19.498;2023-05-10T03:21:21;5.10;60.50
45137;DHT22;30894;51.740;19.498;2023-05-10T03:23:58;5.00;59.90
45137;DHT22;30894;51.740;19.498;2023-05-10T03:26:28;5.00;60.00
45137;DHT22;30894;51.740;19.498;2023-05-10T03:28:55;5.00;60.00
45137;DHT22;30894;51.740;19.498;2023-05-10T03:31:25;5.00;60.10
45137;DHT22;30894;51.740;19.498;2023-05-10T03:33:52;4.90;60.20
45137;DHT22;30894;51.740;19.498;2023-05-10T03:36:19;4.90;60.20
45137;DHT22;30894;51.740;19.498;2023-05-10T03:38:45;4.80;60.30
45137;DHT22;30894;51.740;19.498;2023-05-10T03:41:11;4.70;60.40
45137;DHT22;30894;51.740;19.498;2023-05-10T03:43:37;4.70;60.60
45137;DHT22;30894;51.740;19.498;2023-05-10T03:46:06;4.70;60.60
45137;DHT22;30894;51.740;19.498;2023-05-10T03:48:32;4.70;60.60
45137;DHT22;30894;51.740;19.498;2023-05-10T03:51:02;4.80;60.60
45137;DHT22;30894;51.740;19.498;2023-05-10T03:53:28;4.80;61.20
45137;DHT22;30894;51.740;19.498;2023-05-10T03:55:54;4.80;60.50
45137;DHT22;30894;51.740;19.498;2023-05-10T03:58:20;4.90;60.40
45137;DHT22;30894;51.740;19.498;2023-05-10T04:00:47;4.90;60.30
45137;DHT22;30894;51.740;19.498;2023-05-10T04:03:17;5.00;60.40
45137;DHT22;30894;51.740;19.498;2023-05-10T04:05:45;5.00;60.20
45137;DHT22;30894;51.740;19.498;2023-05-10T04:08:11;5.10;60.20
45137;DHT22;30894;51.740;19.498;2023-05-10T04:10:37;5.20;60.10
45137;DHT22;30894;51.740;19.498;2023-05-10T04:13:03;5.20;60.00
45137;DHT22;30894;51.740;19.498;2023-05-10T04:15:29;5.30;59.90
45137;DHT22;30894;51.740;19.498;2023-05-10T04:17:55;5.30;59.80
45137;DHT22;30894;51.740;19.498;2023-05-10T04:20:22;5.50;59.90
45137;DHT22;30894;51.740;19.498;2023-05-10T04:22:54;5.80;59.50
45137;DHT22;30894;51.740;19.498;2023-05-10T04:25:23;6.20;59.10
45137;DHT22;30894;51.740;19.498;2023-05-10T04:27:51;6.60;58.50
45137;DHT22;30894;51.740;19.498;2023-05-10T04:30:18;7.00;57.90
45137;DHT22;30894;51.740;19.498;2023-05-10T04:32:44;7.40;57.40
45137;DHT22;30894;51.740;19.498;2023-05-10T04:35:13;7.80;57.00
45137;DHT22;30894;51.740;19.498;2023-05-10T04:37:40;8.00;56.60
45137;DHT22;30894;51.740;19.498;2023-05-10T04:40:07;8.30;56.30
45137;DHT22;30894;51.740;19.498;2023-05-10T04:42:33;8.60;56.10
45137;DHT22;30894;51.740;19.498;2023-05-10T04:45:05;8.80;55.80
45137;DHT22;30894;51.740;19.498;2023-05-10T04:47:32;9.10;55.60
45137;DHT22;30894;51.740;19.498;2023-05-10T04:49:58;9.30;55.30
45137;DHT22;30894;51.740;19.498;2023-05-10T04:52:24;9.60;55.00
45137;DHT22;30894;51.740;19.498;2023-05-10T04:55:09;9.90;54.70
45137;DHT22;30894;51.740;19.498;2023-05-10T04:57:35;10.20;54.40
45137;DHT22;30894;51.740;19.498;2023-05-10T05:00:02;10.40;54.20
45137;DHT22;30894;51.740;19.498;2023-05-10T05:02:30;10.60;54.10
45137;DHT22;30894;51.740;19.498;2023-05-10T05:04:59;10.80;53.80
45137;DHT22;30894;51.740;19.498;2023-05-10T05:07:25;11.10;53.50
45137;DHT22;30894;51.740;19.498;2023-05-10T05:09:54;11.30;53.30
45137;DHT22;30894;51.740;19.498;2023-05-10T05:12:22;11.50;53.10
45137;DHT22;30894;51.740;19.498;2023-05-10T05:14:48;11.70;53.00
45137;DHT22;30894;51.740;19.498;2023-05-10T05:17:14;11.90;52.80
45137;DHT22;30894;51.740;19.498;2023-05-10T05:19:41;12.10;52.60
45137;DHT22;30894;51.740;19.498;2023-05-10T05:22:08;12.30;52.40
45137;DHT22;30894;51.740;19.498;2023-05-10T05:24:51;12.50;52.20
45137;DHT22;30894;51.740;19.498;2023-05-10T05:27:26;12.70;51.90
45137;DHT22;30894;51.740;19.498;2023-05-10T05:29:54;12.90;51.70
45137;DHT22;30894;51.740;19.498;2023-05-10T05:32:22;13.10;51.60
45137;DHT22;30894;51.740;19.498;2023-05-10T05:34:49;13.30;51.40
45137;DHT22;30894;51.740;19.498;2023-05-10T05:37:20;13.60;51.10
45137;DHT22;30894;51.740;19.498;2023-05-10T05:39:47;13.80;50.90
45137;DHT22;30894;51.740;19.498;2023-05-10T05:42:13;13.90;50.80
45137;DHT22;30894;51.740;19.498;2023-05-10T05:44:40;14.00;50.70
45137;DHT22;30894;51.740;19.498;2023-05-10T05:47:07;14.30;50.50
45137;DHT22;30894;51.740;19.498;2023-05-10T05:49:33;14.50;50.30
45137;DHT22;30894;51.740;19.498;2023-05-10T05:52:01;14.60;50.20
45137;DHT22;30894;51.740;19.498;2023-05-10T05:54:31;14.80;49.90
45137;DHT22;30894;51.740;19.498;2023-05-10T05:56:58;15.00;49.80
45137;DHT22;30894;51.740;19.498;2023-05-10T05:59:26;15.20;49.60
45137;DHT22;30894;51.740;19.498;2023-05-10T06:01:53;15.30;49.70
45137;DHT22;30894;51.740;19.498;2023-05-10T06:04:19;15.30;49.60
45137;DHT22;30894;51.740;19.498;2023-05-10T06:06:48;15.40;49.60
45137;DHT22;30894;51.740;19.498;2023-05-10T06:09:14;15.50;49.50
45137;DHT22;30894;51.740;19.498;2023-05-10T06:11:44;15.60;49.40
45137;DHT22;30894;51.740;19.498;2023-05-10T06:14:13;15.90;49.20
45137;DHT22;30894;51.740;19.498;2023-05-10T06:16:44;16.10;48.80
45137;DHT22;30894;51.740;19.498;2023-05-10T06:19:11;16.30;48.70
45137;DHT22;30894;51.740;19.498;2023-05-10T06:21:37;16.40;48.60
45137;DHT22;30894;51.740;19.498;2023-05-10T06:24:03;16.50;48.50
45137;DHT22;30894;51.740;19.498;2023-05-10T06:26:34;16.70;48.40
45137;DHT22;30894;51.740;19.498;2023-05-10T06:29:00;16.90;48.20
45137;DHT22;30894;51.740;19.498;2023-05-10T06:31:30;17.10;48.00
45137;DHT22;30894;51.740;19.498;2023-05-10T06:33:56;17.50;47.70
45137;DHT22;30894;51.740;19.498;2023-05-10T06:36:27;17.80;47.40
45137;DHT22;30894;51.740;19.498;2023-05-10T06:38:53;18.00;47.10
45137;DHT22;30894;51.740;19.498;2023-05-10T06:41:23;18.20;47.00
45137;DHT22;30894;51.740;19.498;2023-05-10T06:43:58;18.50;46.70
45137;DHT22;30894;51.740;19.498;2023-05-10T06:46:27;18.60;46.70
45137;DHT22;30894;51.740;19.498;2023-05-10T06:48:54;18.80;46.40
45137;DHT22;30894;51.740;19.498;2023-05-10T06:51:20;19.00;46.20
45137;DHT22;30894;51.740;19.498;2023-05-10T06:53:46;19.20;46.00
45137;DHT22;30894;51.740;19.498;2023-05-10T06:56:15;19.60;45.80
45137;DHT22;30894;51.740;19.498;2023-05-10T06:58:41;20.00;45.40
45137;DHT22;30894;51.740;19.498;2023-05-10T07:01:07;20.00;45.90
45137;DHT22;30894;51.740;19.498;2023-05-10T07:03:33;20.10;45.10
45137;DHT22;30894;51.740;19.498;2023-05-10T07:06:03;20.40;45.00
45137;DHT22;30894;51.740;19.498;2023-05-10T07:08:36;20.70;44.80
45137;DHT22;30894;51.740;19.498;2023-05-10T07:11:06;20.80;44.70
45137;DHT22;30894;51.740;19.498;2023-05-10T07:13:36;20.90;44.60
45137;DHT22;30894;51.740;19.498;2023-05-10T07:16:05;21.00;44.40
45137;DHT22;30894;51.740;19.498;2023-05-10T07:18:31;21.30;44.30
45137;DHT22;30894;51.740;19.498;2023-05-10T07:20:58;21.40;44.20
45137;DHT22;30894;51.740;19.498;2023-05-10T07:23:27;21.70;44.00
45137;DHT22;30894;51.740;19.498;2023-05-10T07:25:57;21.90;43.80
45137;DHT22;30894;51.740;19.498;2023-05-10T07:28:24;22.10;43.70
45137;DHT22;30894;51.740;19.498;2023-05-10T07:30:51;22.20;43.50
45137;DHT22;30894;51.740;19.498;2023-05-10T07:33:16;22.40;43.40
45137;DHT22;30894;51.740;19.498;2023-05-10T07:35:43;22.70;43.20
45137;DHT22;30894;51.740;19.498;2023-05-10T07:38:09;23.00;42.90
45137;DHT22;30894;51.740;19.498;2023-05-10T07:40:37;23.20;42.80
45137;DHT22;30894;51.740;19.498;2023-05-10T07:43:03;23.70;42.50
45137;DHT22;30894;51.740;19.498;2023-05-10T07:45:30;24.20;42.10
45137;DHT22;30894;51.740;19.498;2023-05-10T07:47:56;24.60;41.80
45137;DHT22;30894;51.740;19.498;2023-05-10T07:50:23;24.80;41.70
45137;DHT22;30894;51.740;19.498;2023-05-10T07:52:49;24.90;41.60
45137;DHT22;30894;51.740;19.498;2023-05-10T07:55:15;24.90;41.60
45137;DHT22;30894;51.740;19.498;2023-05-10T07:57:41;24.80;41.50
45137;DHT22;30894;51.740;19.498;2023-05-10T08:00:08;24.80;41.70
45137;DHT22;30894;51.740;19.498;2023-05-10T08:02:37;24.80;41.60
45137;DHT22;30894;51.740;19.498;2023-05-10T08:05:05;24.90;41.70
45137;DHT22;30894;51.740;19.498;2023-05-10T08:07:31;25.00;41.70
45137;DHT22;30894;51.740;19.498;2023-05-10T08:09:58;25.30;41.50
45137;DHT22;30894;51.740;19.498;2023-05-10T08:12:23;25.40;41.30
45137;DHT22;30894;51.740;19.498;2023-05-10T08:14:50;25.40;41.10
45137;DHT22;30894;51.740;19.498;2023-05-10T08:17:18;25.40;41.20
45137;DHT22;30894;51.740;19.498;2023-05-10T08:19:45;25.60;41.00
45137;DHT22;30894;51.740;19.498;2023-05-10T08:22:11;25.70;41.10
45137;DHT22;30894;51.740;19.498;2023-05-10T08:24:41;25.80;40.90
45137;DHT22;30894;51.740;19.498;2023-05-10T08:27:08;26.00;40.80
45137;DHT22;30894;51.740;19.498;2023-05-10T08:29:35;26.00;40.70
45137;DHT22;30894;51.740;19.498;2023-05-10T08:32:02;25.90;40.70
45137;DHT22;30894;51.740;19.498;2023-05-10T08:34:32;25.90;40.60
45137;DHT22;30894;51.740;19.498;2023-05-10T08:37:02;25.60;40.50
45137;DHT22;30894;51.740;19.498;2023-05-10T08:39:28;25.50;40.70
45137;DHT22;30894;51.740;19.498;2023-05-10T08:41:57;25.50;40.70
45137;DHT22;30894;51.740;19.498;2023-05-10T08:44:26;25.70;40.60
45137;DHT22;30894;51.740;19.498;2023-05-10T08:46:53;25.70;40.40
45137;DHT22;30894;51.740;19.498;2023-05-10T08:49:21;25.70;40.40
45137;DHT22;30894;51.740;19.498;2023-05-10T08:51:51;25.70;40.40
45137;DHT22;30894;51.740;19.498;2023-05-10T08:54:22;25.60;40.90
45137;DHT22;30894;51.740;19.498;2023-05-10T08:56:48;25.60;40.30
45137;DHT22;30894;51.740;19.498;2023-05-10T08:59:15;25.90;40.30
45137;DHT22;30894;51.740;19.498;2023-05-10T09:01:43;26.30;40.10
45137;DHT22;30894;51.740;19.498;2023-05-10T09:04:12;26.50;39.80
45137;DHT22;30894;51.740;19.498;2023-05-10T09:06:38;26.40;39.60
45137;DHT22;30894;51.740;19.498;2023-05-10T09:09:05;26.50;39.60
45137;DHT22;30894;51.740;19.498;2023-05-10T09:11:31;26.50;39.40
45137;DHT22;30894;51.740;19.498;2023-05-10T09:13:58;26.40;39.40
45137;DHT22;30894;51.740;19.498;2023-05-10T09:16:24;26.50;39.90
45137;DHT22;30894;51.740;19.498;2023-05-10T09:18:51;26.50;39.20
45137;DHT22;30894;51.740;19.498;2023-05-10T09:21:17;26.70;39.20
45137;DHT22;30894;51.740;19.498;2023-05-10T09:23:47;26.60;39.00
45137;DHT22;30894;51.740;19.498;2023-05-10T09:26:15;26.60;39.10
45137;DHT22;30894;51.740;19.498;2023-05-10T09:28:56;26.80;39.00
45137;DHT22;30894;51.740;19.498;2023-05-10T09:31:23;26.70;38.90
45137;DHT22;30894;51.740;19.498;2023-05-10T09:33:54;26.80;38.90
45137;DHT22;30894;51.740;19.498;2023-05-10T09:36:20;27.00;38.80
45137;DHT22;30894;51.740;19.498;2023-05-10T09:38:51;26.80;38.60
45137;DHT22;30894;51.740;19.498;2023-05-10T09:41:24;26.70;38.80
45137;DHT22;30894;51.740;19.498;2023-05-10T09:43:55;26.30;39.00
45137;DHT22;30894;51.740;19.498;2023-05-10T09:46:22;26.50;39.10
45137;DHT22;30894;51.740;19.498;2023-05-10T09:48:52;26.80;38.90
45137;DHT22;30894;51.740;19.498;2023-05-10T09:51:20;27.10;38.60
45137;DHT22;30894;51.740;19.498;2023-05-10T09:53:47;27.70;38.50
45137;DHT22;30894;51.740;19.498;2023-05-10T09:56:35;27.80;38.10
45137;DHT22;30894;51.740;19.498;2023-05-10T09:59:11;27.80;38.10
45137;DHT22;30894;51.740;19.498;2023-05-10T10:01:39;27.60;38.10
45137;DHT22;30894;51.740;19.498;2023-05-10T10:04:06;27.10;38.30
45137;DHT22;30894;51.740;19.498;2023-05-10T10:06:37;27.10;38.70
45137;DHT22;30894;51.740;19.498;2023-05-10T10:09:07;27.50;38.50
45137;DHT22;30894;51.740;19.498;2023-05-10T10:11:36;27.70;38.20
45137;DHT22;30894;51.740;19.498;2023-05-10T10:14:04;27.80;38.00
45137;DHT22;30894;51.740;19.498;2023-05-10T10:16:32;27.80;38.00
45137;DHT22;30894;51.740;19.498;2023-05-10T10:19:00;27.50;37.90
45137;DHT22;30894;51.740;19.498;2023-05-10T10:21:29;27.50;38.10
45137;DHT22;30894;51.740;19.498;2023-05-10T10:23:56;27.60;38.00
45137;DHT22;30894;51.740;19.498;2023-05-10T10:26:25;27.70;37.90
45137;DHT22;30894;51.740;19.498;2023-05-10T10:34:25;28.00;37.70
45137;DHT22;30894;51.740;19.498;2023-05-10T10:36:54;28.10;37.50
45137;DHT22;30894;51.740;19.498;2023-05-10T10:39:22;28.10;37.60
45137;DHT22;30894;51.740;19.498;2023-05-10T10:41:55;28.10;37.50
45137;DHT22;30894;51.740;19.498;2023-05-10T10:55:13;28.40;37.10
45137;DHT22;30894;51.740;19.498;2023-05-10T10:57:53;28.50;37.20
45137;DHT22;30894;51.740;19.498;2023-05-10T11:03:11;29.00;36.80
45137;DHT22;30894;51.740;19.498;2023-05-10T11:11:02;28.60;36.90
45137;DHT22;30894;51.740;19.498;2023-05-10T11:13:43;28.60;37.00
45137;DHT22;30894;51.740;19.498;2023-05-10T11:16:20;28.60;37.10
45137;DHT22;30894;51.740;19.498;2023-05-10T11:21:33;28.30;36.90
45137;DHT22;30894;51.740;19.498;2023-05-10T11:24:09;27.80;37.20
45137;DHT22;30894;51.740;19.498;2023-05-10T11:26:41;27.70;37.30
45137;DHT22;30894;51.740;19.498;2023-05-10T11:29:07;27.90;37.40
45137;DHT22;30894;51.740;19.498;2023-05-10T11:31:34;28.20;37.20
45137;DHT22;30894;51.740;19.498;2023-05-10T11:34:00;28.40;37.10
45137;DHT22;30894;51.740;19.498;2023-05-10T11:36:34;28.60;36.90
45137;DHT22;30894;51.740;19.498;2023-05-10T11:39:05;28.80;36.90
45137;DHT22;30894;51.740;19.498;2023-05-10T11:41:32;29.30;36.60
45137;DHT22;30894;51.740;19.498;2023-05-10T11:43:59;29.60;36.30
45137;DHT22;30894;51.740;19.498;2023-05-10T11:46:27;29.90;36.20
45137;DHT22;30894;51.740;19.498;2023-05-10T11:49:01;30.10;36.10
45137;DHT22;30894;51.740;19.498;2023-05-10T11:51:34;30.20;36.00
45137;DHT22;30894;51.740;19.498;2023-05-10T11:54:09;30.00;35.90
45137;DHT22;30894;51.740;19.498;2023-05-10T11:56:37;29.90;36.10
45137;DHT22;30894;51.740;19.498;2023-05-10T11:59:07;30.20;36.00
45137;DHT22;30894;51.740;19.498;2023-05-10T12:01:34;30.20;35.90
45137;DHT22;30894;51.740;19.498;2023-05-10T12:04:01;30.10;35.90
45137;DHT22;30894;51.740;19.498;2023-05-10T12:06:29;30.10;36.00
45137;DHT22;30894;51.740;19.498;2023-05-10T12:08:58;30.20;35.90
45137;DHT22;30894;51.740;19.498;2023-05-10T12:11:25;30.40;35.90
45137;DHT22;30894;51.740;19.498;2023-05-10T12:13:54;30.30;35.80
45137;DHT22;30894;51.740;19.498;2023-05-10T12:16:28;30.40;35.70
45137;DHT22;30894;51.740;19.498;2023-05-10T12:18:58;30.10;35.60
45137;DHT22;30894;51.740;19.498;2023-05-10T12:21:28;29.50;36.00
45137;DHT22;30894;51.740;19.498;2023-05-10T12:24:01;29.30;36.20
45137;DHT22;30894;51.740;19.498;2023-05-10T12:26:29;29.50;36.20
45137;DHT22;30894;51.740;19.498;2023-05-10T12:29:14;29.60;36.10
45137;DHT22;30894;51.740;19.498;2023-05-10T12:31:58;29.10;36.10
45137;DHT22;30894;51.740;19.498;2023-05-10T12:34:32;28.90;36.30
45137;DHT22;30894;51.740;19.498;2023-05-10T12:37:00;28.90;36.30
45137;DHT22;30894;51.740;19.498;2023-05-10T12:39:41;28.50;36.60
45137;DHT22;30894;51.740;19.498;2023-05-10T12:42:09;28.60;36.50
45137;DHT22;30894;51.740;19.498;2023-05-10T12:44:35;28.60;36.50
45137;DHT22;30894;51.740;19.498;2023-05-10T12:47:01;28.80;36.50
45137;DHT22;30894;51.740;19.498;2023-05-10T12:49:28;29.00;36.30
45137;DHT22;30894;51.740;19.498;2023-05-10T12:51:54;29.20;36.10
45137;DHT22;30894;51.740;19.498;2023-05-10T12:54:20;29.00;36.10
45137;DHT22;30894;51.740;19.498;2023-05-10T12:56:47;28.20;36.60
45137;DHT22;30894;51.740;19.498;2023-05-10T12:59:13;27.90;36.80
45137;DHT22;30894;51.740;19.498;2023-05-10T13:01:39;27.50;37.00
45137;DHT22;30894;51.740;19.498;2023-05-10T13:04:06;27.30;37.40
45137;DHT22;30894;51.740;19.498;2023-05-10T13:06:33;27.60;37.30
45137;DHT22;30894;51.740;19.498;2023-05-10T13:09:00;27.70;37.00
45137;DHT22;30894;51.740;19.498;2023-05-10T13:11:26;27.90;36.90
45137;DHT22;30894;51.740;19.498;2023-05-10T13:13:52;28.20;36.80
45137;DHT22;30894;51.740;19.498;2023-05-10T13:16:21;28.40;36.50
45137;DHT22;30894;51.740;19.498;2023-05-10T13:18:48;28.40;36.40
45137;DHT22;30894;51.740;19.498;2023-05-10T13:21:14;28.70;37.10
45137;DHT22;30894;51.740;19.498;2023-05-10T13:23:42;28.60;36.30
45137;DHT22;30894;51.740;19.498;2023-05-10T13:26:09;28.30;36.30
45137;DHT22;30894;51.740;19.498;2023-05-10T13:28:35;27.70;37.00
45137;DHT22;30894;51.740;19.498;2023-05-10T13:31:01;26.30;37.40
45137;DHT22;30894;51.740;19.498;2023-05-10T13:33:28;26.00;38.20
45137;DHT22;30894;51.740;19.498;2023-05-10T13:35:54;26.20;38.00
45137;DHT22;30894;51.740;19.498;2023-05-10T13:38:21;26.60;37.80
45137;DHT22;30894;51.740;19.498;2023-05-10T13:40:47;27.20;37.50
45137;DHT22;30894;51.740;19.498;2023-05-10T13:43:18;27.80;37.00
45137;DHT22;30894;51.740;19.498;2023-05-10T13:45:45;28.40;36.60
45137;DHT22;30894;51.740;19.498;2023-05-10T13:48:10;28.90;36.30
45137;DHT22;30894;51.740;19.498;2023-05-10T13:50:37;28.90;36.10
45137;DHT22;30894;51.740;19.498;2023-05-10T13:53:04;28.80;36.00
45137;DHT22;30894;51.740;19.498;2023-05-10T13:59:03;28.40;36.20
45137;DHT22;30894;51.740;19.498;2023-05-10T14:01:31;28.20;36.30
45137;DHT22;30894;51.740;19.498;2023-05-10T14:03:57;28.20;36.40
45137;DHT22;30894;51.740;19.498;2023-05-10T14:06:24;28.10;36.50
45137;DHT22;30894;51.740;19.498;2023-05-10T14:08:51;28.00;36.50
45137;DHT22;30894;51.740;19.498;2023-05-10T14:11:18;28.10;36.50
45137;DHT22;30894;51.740;19.498;2023-05-10T14:13:50;28.10;36.40
45137;DHT22;30894;51.740;19.498;2023-05-10T14:16:16;27.60;36.40
45137;DHT22;30894;51.740;19.498;2023-05-10T14:18:42;27.10;36.70
45137;DHT22;30894;51.740;19.498;2023-05-10T14:21:09;26.90;36.90
45137;DHT22;30894;51.740;19.498;2023-05-10T14:23:35;26.70;37.00
45137;DHT22;30894;51.740;19.498;2023-05-10T14:26:02;26.40;37.20
45137;DHT22;30894;51.740;19.498;2023-05-10T14:28:28;26.00;37.40
45137;DHT22;30894;51.740;19.498;2023-05-10T14:30:55;25.90;37.50
45137;DHT22;30894;51.740;19.498;2023-05-10T14:33:22;25.80;37.50
45137;DHT22;30894;51.740;19.498;2023-05-10T14:35:48;25.80;37.60
45137;DHT22;30894;51.740;19.498;2023-05-10T14:38:15;25.50;37.60
45137;DHT22;30894;51.740;19.498;2023-05-10T14:40:45;25.30;37.90
45137;DHT22;30894;51.740;19.498;2023-05-10T14:43:11;25.00;38.00
45137;DHT22;30894;51.740;19.498;2023-05-10T14:45:37;24.80;38.20
45137;DHT22;30894;51.740;19.498;2023-05-10T14:48:03;24.60;38.40
45137;DHT22;30894;51.740;19.498;2023-05-10T14:50:31;24.40;38.60
45137;DHT22;30894;51.740;19.498;2023-05-10T14:53:34;24.30;38.70
45137;DHT22;30894;51.740;19.498;2023-05-10T14:56:01;24.30;38.90
45137;DHT22;30894;51.740;19.498;2023-05-10T14:58:29;24.20;38.90
45137;DHT22;30894;51.740;19.498;2023-05-10T15:00:56;24.00;38.90
45137;DHT22;30894;51.740;19.498;2023-05-10T15:03:23;23.90;39.00
45137;DHT22;30894;51.740;19.498;2023-05-10T15:05:50;23.80;39.10
45137;DHT22;30894;51.740;19.498;2023-05-10T15:08:19;23.70;39.10
45137;DHT22;30894;51.740;19.498;2023-05-10T15:10:46;23.70;39.10
45137;DHT22;30894;51.740;19.498;2023-05-10T15:13:13;23.50;39.00
45137;DHT22;30894;51.740;19.498;2023-05-10T15:15:40;23.40;39.20
45137;DHT22;30894;51.740;19.498;2023-05-10T15:18:06;23.30;39.30
45137;DHT22;30894;51.740;19.498;2023-05-10T15:20:32;23.10;39.40
45137;DHT22;30894;51.740;19.498;2023-05-10T15:22:58;22.90;39.40
45137;DHT22;30894;51.740;19.498;2023-05-10T15:25:25;22.70;39.50
45137;DHT22;30894;51.740;19.498;2023-05-10T15:27:54;22.50;39.80
45137;DHT22;30894;51.740;19.498;2023-05-10T15:30:24;22.40;40.00
45137;DHT22;30894;51.740;19.498;2023-05-10T15:32:50;22.40;40.10
45137;DHT22;30894;51.740;19.498;2023-05-10T15:35:17;22.20;40.20
45137;DHT22;30894;51.740;19.498;2023-05-10T15:37:43;22.00;40.30
45137;DHT22;30894;51.740;19.498;2023-05-10T15:40:10;21.70;40.80
45137;DHT22;30894;51.740;19.498;2023-05-10T15:42:36;21.30;40.90
45137;DHT22;30894;51.740;19.498;2023-05-10T15:45:02;21.00;41.20
45137;DHT22;30894;51.740;19.498;2023-05-10T15:47:29;20.70;41.50
45137;DHT22;30894;51.740;19.498;2023-05-10T15:49:58;20.50;41.80
45137;DHT22;30894;51.740;19.498;2023-05-10T15:52:24;20.40;42.10
45137;DHT22;30894;51.740;19.498;2023-05-10T15:54:51;20.30;42.30
45137;DHT22;30894;51.740;19.498;2023-05-10T15:57:17;20.30;42.30
45137;DHT22;30894;51.740;19.498;2023-05-10T15:59:43;20.20;42.30
45137;DHT22;30894;51.740;19.498;2023-05-10T16:02:10;20.20;42.40
45137;DHT22;30894;51.740;19.498;2023-05-10T16:04:36;20.20;42.50
45137;DHT22;30894;51.740;19.498;2023-05-10T16:07:03;20.10;42.40
45137;DHT22;30894;51.740;19.498;2023-05-10T16:09:29;20.10;42.50
45137;DHT22;30894;51.740;19.498;2023-05-10T16:11:56;20.10;42.40
45137;DHT22;30894;51.740;19.498;2023-05-10T16:14:22;20.00;42.40
45137;DHT22;30894;51.740;19.498;2023-05-10T16:16:49;20.00;42.40
45137;DHT22;30894;51.740;19.498;2023-05-10T16:19:15;20.00;42.50